• Join FlightAware (Why Join?)
  • Login
  • US Flag 
04:45AM EDT


 

Airport Tracker/Info


-or-


 

Live Flight TrackerFlight Track Log ✈ N10933 ✈ 23-Apr-2013 ✈ KYIP - KPTD

Flight Track Log - Related Links

Times and Time Zones

All times are in EDT time to prevent confusion due to time zone crossing. See the N10933 flight status page for this flight to view local times or setup timezone preferences in your user account.

Time Position Orientation Groundspeed Altitude Reporting Facility
EDT Latitude Longitude Course Direction KTS MPH feet Rate Location/Type
05:05PM 42.2308 -83.5403 226° Southwest 77 89 1,300  Level FAA TRACON SMA TRACON (SMA)
05:05PM 42.2258 -83.5472 226° Southwest 77 89 1,500 600 Climbing FAA TRACON SMA TRACON (SMA)
05:05PM 42.2250 -83.5564 263° West 86 99 1,700 420 Climbing FAA TRACON SMA TRACON (SMA)
05:06PM 42.2250 -83.5700 270° West 95 109 1,800 540 Climbing FAA TRACON SMA TRACON (SMA)
05:06PM 42.2233 -83.5839 261° West 109 125 2,100 900 Climbing FAA TRACON SMA TRACON (SMA)
05:06PM 42.2222 -83.5969 263° West 111 128 2,400 900 Climbing FAA TRACON SMA TRACON (SMA)
05:07PM 42.2250 -83.6136 283° West 136 157 2,700 900 Climbing FAA TRACON SMA TRACON (SMA)
05:07PM 42.2369 -83.6206 337° Northwest 158 182 3,000 900 Climbing FAA TRACON SMA TRACON (SMA)
05:07PM 42.2472 -83.6150 22° Northeast 146 168 3,300 1,020 Climbing FAA TRACON SMA TRACON (SMA)
05:08PM 42.2567 -83.5931 60° Northeast 156 180 3,700 900 Climbing FAA TRACON SMA TRACON (SMA)
05:08PM 42.2600 -83.5764 75° East 149 171 3,900 600 Climbing FAA TRACON SMA TRACON (SMA)
05:08PM 42.2636 -83.5592 74° East 154 177 4,100 900 Climbing FAA TRACON SMA TRACON (SMA)
05:09PM 42.2672 -83.5394 76° East 152 175 4,500 1,020 Climbing FAA TRACON SMA TRACON (SMA)
05:09PM 42.2714 -83.5206 73° East 156 180 4,800 840 Climbing FAA TRACON SMA TRACON (SMA)
05:09PM 42.2753 -83.5036 73° East 152 175 5,100 1,020 Climbing FAA TRACON SMA TRACON (SMA)
05:10PM 42.2794 -83.4831 75° East 150 173 5,500 1,020 Climbing FAA TRACON SMA TRACON (SMA)
05:10PM 42.2772 -83.4672 101° East 134 154 5,800 900 Climbing FAA TRACON SMA TRACON (SMA)
05:10PM 42.2736 -83.4517 107° East 147 169 6,100 420 Climbing FAA TRACON SMA TRACON (SMA)
05:11PM 42.2694 -83.4308 105° East 155 178 6,100  Level FAA TRACON SMA TRACON (SMA)
05:11PM 42.2650 -83.4139 110° East 151 174 6,100  Level FAA TRACON SMA TRACON (SMA)
05:11PM 42.2597 -83.3969 113° Southeast 156 180 6,100  Level FAA TRACON SMA TRACON (SMA)
05:12PM 42.2528 -83.3756 114° Southeast 162 186 6,100  Level FAA TRACON SMA TRACON (SMA)
05:12PM 42.2475 -83.3586 113° Southeast 162 186 6,100  Level FAA TRACON SMA TRACON (SMA)
05:12PM 42.2411 -83.3383 113° Southeast 161 185 6,100  Level FAA TRACON SMA TRACON (SMA)
05:13PM 42.2358 -83.3219 114° Southeast 162 186 6,100  Level FAA TRACON SMA TRACON (SMA)
05:13PM 42.2292 -83.3019 114° Southeast 161 185 6,100  Level FAA TRACON SMA TRACON (SMA)
05:13PM 42.2236 -83.2856 115° Southeast 162 186 6,100  Level FAA TRACON SMA TRACON (SMA)
05:14PM 42.2167 -83.2642 114° Southeast 161 185 6,100  Level FAA TRACON SMA TRACON (SMA)
05:14PM 42.2114 -83.2469 112° Southeast 161 185 6,100  Level FAA TRACON SMA TRACON (SMA)
05:14PM 42.2058 -83.2294 113° Southeast 162 186 6,100  Level FAA TRACON SMA TRACON (SMA)
05:15PM 42.1989 -83.2078 113° Southeast 163 188 6,100  Level FAA TRACON SMA TRACON (SMA)
05:15PM 42.1936 -83.1903 112° Southeast 163 188 6,100  Level FAA TRACON SMA TRACON (SMA)
05:15PM 42.1928 -83.1700 93° East 192 221 6,100 -180 Level FAA TRACON SMA TRACON (SMA)
05:16PM 42.1978 -83.1450 75° East 186 214 6,000 -180 Descending FAA TRACON SMA TRACON (SMA)
05:16PM 42.2031 -83.1244 71° East 185 213 6,000 120 Level FAA TRACON SMA TRACON (SMA)
05:16PM 42.2081 -83.1039 72° East 186 214 6,100 120 Climbing FAA TRACON SMA TRACON (SMA)
05:17PM 42.2150 -83.0789 69° East 186 214 6,100  Level FAA TRACON SMA TRACON (SMA)
05:17PM 42.2206 -83.0606 68° East 187 215 6,100  Level FAA TRACON SMA TRACON (SMA)
05:17PM 42.2264 -83.0381 71° East 188 216 6,100  Level FAA TRACON SMA TRACON (SMA)
05:18PM 42.2331 -83.0128 70° East 187 215 6,100  Level FAA TRACON SMA TRACON (SMA)
05:18PM 42.2381 -82.9947 69° East 188 216 6,100  Level FAA TRACON SMA TRACON (SMA)
05:18PM 42.2439 -82.9708 72° East 190 219 6,100  Level FAA TRACON SMA TRACON (SMA)
05:19PM 42.2508 -82.9447 70° East 192 221 6,100  Level FAA TRACON SMA TRACON (SMA)
05:19PM 42.2558 -82.9250 71° East 192 221 6,100  Level FAA TRACON SMA TRACON (SMA)
05:19PM 42.2611 -82.9028 72° East 191 220 6,100  Level FAA TRACON SMA TRACON (SMA)
05:20PM 42.2672 -82.8764 73° East 191 220 6,100 120 Level FAA TRACON SMA TRACON (SMA)
05:20PM 42.2722 -82.8556 72° East 189 217 6,200 600 Climbing FAA TRACON SMA TRACON (SMA)
05:20PM 42.2775 -82.8361 70° East 182 209 6,500 900 Climbing FAA TRACON SMA TRACON (SMA)
05:21PM 42.2833 -82.8183 66° East 173 199 6,800 720 Climbing FAA TRACON SMA TRACON (SMA)
05:21PM 42.2892 -82.7956 71° East 168 193 7,000 540 Climbing FAA TRACON SMA TRACON (SMA)
05:21PM 42.2939 -82.7772 71° East 168 193 7,200 600 Climbing FAA TRACON SMA TRACON (SMA)
05:22PM 42.2981 -82.7583 73° East 170 196 7,400 720 Climbing FAA TRACON SMA TRACON (SMA)
05:22PM 42.3039 -82.7344 72° East 172 198 7,700 600 Climbing FAA TRACON SMA TRACON (SMA)
05:22PM 42.3081 -82.7147 74° East 174 200 7,800 420 Climbing FAA TRACON SMA TRACON (SMA)
05:23PM 42.3125 -82.6950 73° East 176 203 8,000 540 Climbing FAA TRACON SMA TRACON (SMA)
05:23PM 42.3175 -82.6697 75° East 178 205 8,200 600 Climbing FAA TRACON SMA TRACON (SMA)
05:23PM 42.3219 -82.6497 73° East 180 207 8,400 600 Climbing FAA TRACON SMA TRACON (SMA)
05:24PM 42.3314 -82.6042 74° East 181 208 8,800 480 Climbing FAA TRACON SMA TRACON (SMA)
05:24PM 42.3358 -82.5842 73° East 182 209 8,900 420 Climbing FAA TRACON SMA TRACON (SMA)
05:25PM 42.3406 -82.5636 73° East 183 211 9,100 600 Climbing FAA TRACON SMA TRACON (SMA)
05:25PM 42.3453 -82.5375 76° East 184 212 9,300 540 Climbing FAA TRACON SMA TRACON (SMA)
05:25PM 42.3497 -82.5167 74° East 186 214 9,500 600 Climbing FAA TRACON SMA TRACON (SMA)
05:26PM 42.3533 -82.4956 77° East 187 215 9,700 600 Climbing FAA TRACON SMA TRACON (SMA)
05:26PM 42.3586 -82.4689 75° East 190 219 9,900 420 Climbing FAA TRACON SMA TRACON (SMA)
05:26PM 42.3644 -82.4472 70° East 194 223 10,000 600 Climbing FAA TRACON SMA TRACON (SMA)
05:27PM 42.3683 -82.4258 76° East 190 219 10,300 840 Climbing FAA TRACON SMA TRACON (SMA)
05:27PM 42.3644 -82.4008 102° East 174 200 10,600 1,020 Climbing FAA TRACON SMA TRACON (SMA)
05:27PM 42.3606 -82.3825 106° East 173 199 11,000 1,020 Climbing FAA TRACON SMA TRACON (SMA)
05:28PM 42.3581 -82.3639 100° East 163 188 11,300 720 Climbing FAA TRACON SMA TRACON (SMA)
05:28PM 42.3558 -82.3408 97° East 161 185 11,500 600 Climbing FAA TRACON SMA TRACON (SMA)
05:28PM 42.3525 -82.3222 104° East 165 190 11,700 540 Climbing FAA TRACON SMA TRACON (SMA)
05:29PM 42.3483 -82.3031 106° East 167 192 11,900 720 Climbing FAA TRACON SMA TRACON (SMA)
05:29PM 42.3439 -82.2792 104° East 169 194 12,200 720 Climbing FAA TRACON SMA TRACON (SMA)
05:29PM 42.3428 -82.2592 94° East 173 199 12,400 540 Climbing FAA TRACON SMA TRACON (SMA)
05:30PM 42.3433 -82.2386 88° East 178 205 12,600 600 Climbing FAA TRACON SMA TRACON (SMA)
05:30PM 42.3428 -82.2175 92° East 178 205 12,800 600 Climbing FAA TRACON SMA TRACON (SMA)
05:30PM 42.3414 -82.1931 94° East 181 208 13,000 240 Climbing FAA TRACON SMA TRACON (SMA)
05:31PM 42.3411 -82.1878 94° East 181 208 13,000 660 Level FAA TRACON SMA TRACON (SMA)
05:31PM 42.3350 -82.1478 102° East 166 191 13,500 780 Climbing Cleveland Center
05:32PM 42.3317 -82.0717 93° East 183 211 14,100 540 Climbing Cleveland Center
05:33PM 42.3389 -81.9961 83° East 189 217 14,600 540 Climbing Cleveland Center
05:34PM 42.3439 -81.9289 84° East 194 223 15,200 660 Climbing Cleveland Center
05:35PM 42.3489 -81.8586 84° East 200 230 16,000 780 Climbing Cleveland Center
05:36PM 42.3539 -81.7856 85° East 195 224 16,800 600 Climbing Cleveland Center
05:37PM 42.3608 -81.7128 83° East 195 224 17,300 540 Climbing Cleveland Center
05:38PM 42.3678 -81.6369 83° East 195 224 17,900 540 Climbing Cleveland Center
05:39PM 42.3747 -81.5556 83° East 195 224 18,400 540 Climbing Cleveland Center
05:40PM 42.3817 -81.4856 82° East 195 224 19,000 600 Climbing Cleveland Center
05:41PM 42.3864 -81.4125 85° East 195 224 19,700 720 Climbing Cleveland Center
05:42PM 42.3889 -81.3478 87° East 189 217 20,500 600 Climbing Cleveland Center
05:43PM 42.3894 -81.2775 89° East 178 205 21,000 240 Climbing Cleveland Center
05:44PM 42.3897 -81.2044 90° East 184 212 21,000  Level Cleveland Center
05:45PM 42.3986 -81.1203 82° East 207 238 21,000  Level Cleveland Center
05:46PM 42.4050 -81.0386 84° East 217 250 21,000  Level Cleveland Center
05:47PM 42.4117 -80.9572 84° East 222 255 21,000  Level Cleveland Center
05:48PM 42.4161 -80.8869 85° East 216 249 21,000  Level Cleveland Center
05:49PM 42.4225 -80.8025 84° East 216 249 21,000  Level Cleveland Center
05:50PM 42.4267 -80.7183 86° East 216 249 21,000  Level Cleveland Center
05:51PM 42.4353 -80.6422 81° East 216 249 21,000  Level Cleveland Center
05:52PM 42.4372 -80.5578 88° East 216 249 21,000  Level Cleveland Center
05:53PM 42.4394 -80.4764 88° East 216 249 21,000  Level Cleveland Center
05:54PM 42.4414 -80.3892 88° East 216 249 21,000  Level Cleveland Center
05:55PM 42.4453 -80.3103 86° East 216 249 21,000  Level Cleveland Center
05:56PM 42.4492 -80.2258 86° East 216 249 21,000  Level Cleveland Center
05:57PM 42.4511 -80.1469 88° East 216 249 21,000 -60 Level Cleveland Center
05:58PM 42.4486 -80.0711 93° East 210 242 20,900  Descending Cleveland Center
05:59PM 42.4586 -79.9922 80° East 210 242 21,000  Climbing Cleveland Center
06:00PM 42.4625 -79.9133 86° East 210 242 21,000  Level Cleveland Center
06:01PM 42.4703 -79.8344 82° East 210 242 21,000  Level Cleveland Center
06:02PM 42.4719 -79.7556 88° East 210 242 21,000 -60 Level Cleveland Center
06:03PM 42.4775 -79.6794 84° East 210 242 20,900  Descending Cleveland Center
06:04PM 42.4811 -79.6006 86° East 210 242 21,000  Climbing Cleveland Center
06:05PM 42.4844 -79.5189 87° East 210 242 21,000  Level Cleveland Center
06:06PM 42.4881 -79.4400 86° East 210 242 21,000  Level Cleveland Center
06:07PM 42.4911 -79.3583 87° East 210 242 21,000  Level Cleveland Center
06:08PM 42.4944 -79.2822 87° East 215 247 21,000  Level Cleveland Center
06:09PM 42.5103 -79.2086 74° East 215 247 21,000  Level Cleveland Center
06:10PM 42.5431 -79.1461 55° Northeast 199 229 21,000  Level Cleveland Center
06:11PM 42.5797 -79.0831 52° Northeast 199 229 21,000  Level Cleveland Center
06:12PM 42.6100 -79.0203 57° Northeast 204 235 21,000  Level Cleveland Center
06:13PM 42.6428 -78.9603 53° Northeast 199 229 21,000  Level Cleveland Center
06:14PM 42.6750 -78.8972 55° Northeast 199 229 21,000  Level Cleveland Center
06:15PM 42.7097 -78.8342 53° Northeast 199 229 21,000  Level Cleveland Center
06:16PM 42.7483 -78.7767 48° Northeast 199 229 21,000  Level Cleveland Center
06:17PM 42.7850 -78.7189 49° Northeast 199 229 21,000  Level Cleveland Center
06:18PM 42.8194 -78.6614 51° Northeast 199 229 21,000  Level Cleveland Center
06:19PM 42.8539 -78.5978 54° Northeast 194 223 21,000  Level Cleveland Center
06:20PM 42.8861 -78.5403 53° Northeast 194 223 21,000  Level Cleveland Center
06:21PM 42.9203 -78.4767 54° Northeast 194 223 21,000  Level Cleveland Center
06:22PM 42.9525 -78.4161 54° Northeast 199 229 21,000  Level Cleveland Center
06:23PM 42.9869 -78.3525 53° Northeast 199 229 21,000  Level Cleveland Center
06:24PM 43.0169 -78.2944 55° Northeast 199 229 21,000  Level Cleveland Center
06:25PM 43.0511 -78.2336 52° Northeast 199 229 21,000  Level Cleveland Center
06:26PM 43.0853 -78.1669 55° Northeast 199 229 21,000  Level Cleveland Center
06:27PM 43.1192 -78.1003 55° Northeast 199 229 21,000  Level Cleveland Center
06:28PM 43.1533 -78.0333 55° Northeast 199 229 21,000  Level Cleveland Center
06:29PM 43.1872 -77.9694 54° Northeast 199 229 21,000  Level Cleveland Center
06:30PM 43.2211 -77.9053 54° Northeast 199 229 21,000  Level Cleveland Center
06:31PM 43.2550 -77.8411 54° Northeast 199 229 21,000  Level Cleveland Center
06:32PM 43.2869 -77.7739 57° Northeast 199 229 21,000  Level Cleveland Center
06:33PM 43.3208 -77.7097 54° Northeast 199 229 21,000  Level Cleveland Center
06:34PM 43.3544 -77.6453 54° Northeast 199 229 21,000  Level Cleveland Center
06:35PM 43.3883 -77.5808 54° Northeast 199 229 21,000  Level Cleveland Center
06:36PM 43.4200 -77.5164 56° Northeast 199 229 21,000  Level Cleveland Center
06:37PM 43.4558 -77.4517 53° Northeast 199 229 21,000  Level Cleveland Center
06:38PM 43.4872 -77.3872 56° Northeast 199 229 21,000  Level Cleveland Center
06:39PM 43.5211 -77.3225 54° Northeast 199 229 21,000  Level Cleveland Center
06:40PM 43.5544 -77.2547 56° Northeast 199 229 21,000  Level Cleveland Center
06:41PM 43.5881 -77.1897 54° Northeast 199 229 21,000  Level Cleveland Center
06:42PM 43.6214 -77.1219 56° Northeast 199 229 21,000 -60 Level Cleveland Center
06:43PM 43.6489 -77.0722 53° Northeast 200 230 20,900 -600 Descending Boston Center
06:44PM 43.6850 -77.0003 55° Northeast 214 246 20,000 -900 Descending Boston Center
06:45PM 43.7236 -76.9197 56° Northeast 229 264 19,200 -840 Descending Boston Center
06:46PM 43.7600 -76.8447 56° Northeast 234 269 18,400 -720 Descending Boston Center
06:47PM 43.7983 -76.7669 56° Northeast 234 269 17,800 -720 Descending Boston Center
06:48PM 43.8433 -76.6808 54° Northeast 239 275 17,000 -420 Descending Boston Center
06:49PM 43.8814 -76.6086 54° Northeast 239 275 17,000  Level Boston Center
06:50PM 43.9153 -76.5389 56° Northeast 226 260 17,000 -600 Level Boston Center
06:51PM 43.9700 -76.4647 44° Northeast 220 253 15,700 -1,140 Descending Boston Center
06:52PM 44.0181 -76.4017 43° Northeast 230 265 14,600 -1,140 Descending Boston Center
06:53PM 44.0678 -76.3442 40° Northeast 230 265 13,500 -1,080 Descending Boston Center
06:54PM 44.1178 -76.2897 38° Northeast 230 265 12,500 -960 Descending Boston Center
06:55PM 44.1597 -76.2200 50° Northeast 223 257 11,600 -840 Descending Boston Center
06:55PM 44.1667 -76.1833 75° East 230 265 11,300 -660 Descending Montreal Center
06:56PM 44.2000 -76.1333 47° Northeast 210 242 10,700 -720 Descending Montreal Center
06:57PM 44.2369 -76.0800 46° Northeast 206 237 10,100 -780 Descending Boston Center
06:58PM 44.2664 -76.0092 60° Northeast 206 237 9,400 -600 Descending Boston Center
06:59PM 44.2978 -75.9414 57° Northeast 206 237 9,000 -540 Descending Boston Center
07:00PM 44.3286 -75.8794 55° Northeast 200 230 8,400 -600 Descending Boston Center
07:01PM 44.3658 -75.8206 49° Northeast 200 230 7,900 -420 Descending Boston Center
07:02PM 44.3964 -75.7731 48° Northeast 195 224 7,600 -540 Descending Boston Center
07:02PM 44.4000 -75.7500 78° East 200 230 7,300 -840 Descending Montreal Center
07:03PM 44.4333 -75.6833 55° Northeast 200 230 6,600 -660 Descending Montreal Center
07:04PM 44.4833 -75.6333 36° Northeast 200 230 6,000 -600 Descending Montreal Center
07:05PM 44.5222 -75.6022 30° Northeast 195 224 5,600 -480 Descending Boston Center
07:06PM 44.5403 -75.5539 62° Northeast 189 217 5,200 -420 Descending Boston Center